WetterOnline ( https://www.wetteronline.de )

Wetter aktuell Coburg

Aktuelles Wetter: Coburg (323m)

6-stündlich | Neueste Meldungen
Ortszeit Temperatur Wetter
Di, 05.07. 14:00 24.7° C wolkenlos
Di, 05.07. 8:00 16.1° C wolkenlos
Di, 05.07. 2:00 17.5° C leicht bewölkt
Mo, 04.07. 20:00 25.1° C leicht bewölkt
Mo, 04.07. 14:00 24.6° C fast wolkenlos
Mo, 04.07. 8:00 18.3° C wolkenlos
Mo, 04.07. 2:00 16.9° C leicht bewölkt
So, 03.07. 20:00 25.3° C wolkenlos
Ortszeit Temperatur Wetter
Di, 05.07. 14:30 24.3° C leicht bewölkt
Di, 05.07. 14:20 24.3° C leicht bewölkt
Di, 05.07. 14:10 25.4° C leicht bewölkt
Di, 05.07. 14:00 24.7° C wolkenlos
Di, 05.07. 13:50 24.7° C wolkenlos
Di, 05.07. 13:40 24.9° C fast wolkenlos
Di, 05.07. 13:30 24.8° C leicht bewölkt
Di, 05.07. 13:00 24.4° C fast wolkenlos
Di, 05.07. 12:30 23.9° C leicht bewölkt
Di, 05.07. 12:00 23.5° C leicht bewölkt
Di, 05.07. 11:30 23.9° C fast wolkenlos
Ortszeit Relative Feuchte Sichtweite
Di, 05.07. 14:00 29% 50 km
Di, 05.07. 8:00 62% >70 km
Di, 05.07. 2:00 49% >70 km
Mo, 04.07. 20:00 30% >70 km
Mo, 04.07. 14:00 34% >70 km
Mo, 04.07. 8:00 66% 50 km
Mo, 04.07. 2:00 66% >70 km
So, 03.07. 20:00 40% >70 km
Ortszeit Relative Feuchte Sichtweite
Di, 05.07. 14:30 31% 65 km
Di, 05.07. 14:20 31% -
Di, 05.07. 14:10 31% -
Di, 05.07. 14:00 29% 50 km
Di, 05.07. 13:50 29% -
Di, 05.07. 13:40 31% -
Di, 05.07. 13:30 30% >70 km
Di, 05.07. 13:00 33% >70 km
Di, 05.07. 12:30 35% 50 km
Di, 05.07. 12:00 34% >70 km
Di, 05.07. 11:30 35% 55 km
Ortszeit Niederschlagsmenge Niederschlagsart
Di, 05.07. 14:00 0.0 l/m2 in 6 Std. -
Di, 05.07. 8:00 0.0 l/m2 in 12 Std. -
Di, 05.07. 2:00 0.0 l/m2 in 6 Std. -
Mo, 04.07. 20:00 0.0 l/m2 in 12 Std. -
Mo, 04.07. 14:00 0.0 l/m2 in 6 Std. -
Mo, 04.07. 8:00 0.0 l/m2 in 12 Std. -
Mo, 04.07. 2:00 0.0 l/m2 in 6 Std. -
So, 03.07. 20:00 0.0 l/m2 in 12 Std. -
Ortszeit Niederschlagsmenge Niederschlagsart
Di, 05.07. 14:30 0.0 l/m2 in 1 Std. -
Di, 05.07. 14:20 keine Meldung -
Di, 05.07. 14:10 keine Meldung -
Di, 05.07. 14:00 0.0 l/m2 in 1 Std. -
Di, 05.07. 13:50 keine Meldung -
Di, 05.07. 13:40 keine Meldung -
Di, 05.07. 13:30 0.0 l/m2 in 1 Std. -
Di, 05.07. 13:00 0.0 l/m2 in 1 Std. -
Di, 05.07. 12:30 0.0 l/m2 in 1 Std. -
Di, 05.07. 12:00 0.0 l/m2 in 1 Std. -
Di, 05.07. 11:30 0.0 l/m2 in 1 Std. -
Ortszeit Stärke Spitze Richtung
km/h Bft. km/h Grad Sektor
Di, 05.07. 14:00 17 3 44 290° W
Di, 05.07. 8:00 4 1 14 270° W
Di, 05.07. 2:00 2 1 24 50° NO
Mo, 04.07. 20:00 11 2 32 280° W
Mo, 04.07. 14:00 14 3 29 310° NW
Mo, 04.07. 8:00 4 1 14 130° SO
Mo, 04.07. 2:00 11 2 24 20° N
So, 03.07. 20:00 11 2 32 240° SW
Ortszeit Stärke Spitze Richtung
km/h Bft. km/h Grad Sektor
Di, 05.07. 14:30 18 3 29 310° NW
Di, 05.07. 14:20 18 3 - 310° NW
Di, 05.07. 14:10 13 3 - 250° W
Di, 05.07. 14:00 17 3 44 290° W
Di, 05.07. 13:50 17 3 - 290° W
Di, 05.07. 13:40 14 3 - 310° NW
Di, 05.07. 13:30 14 3 43 300° NW
Di, 05.07. 13:00 13 3 24 280° W
Di, 05.07. 12:30 11 2 25 260° W
Di, 05.07. 12:00 14 3 29 280° W
Di, 05.07. 11:30 14 3 29 270° W
Ortszeit Untergrenze Bedeckung Gattung
total tief tief mittel hoch
Di, 05.07. 14:00 - 0/8 0/8 - - -
Di, 05.07. 8:00 - 0/8 0/8 - - -
Di, 05.07. 2:00 8100 m 4/8 0/8 - - -
Mo, 04.07. 20:00 7800 m 7/8 0/8 - - -
Mo, 04.07. 14:00 1500 m 1/8 1/8 - - -
Mo, 04.07. 8:00 - 0/8 0/8 - - -
Mo, 04.07. 2:00 8700 m 4/8 0/8 - - -
So, 03.07. 20:00 - 0/8 0/8 - - -
Ortszeit Bedeckungsgrad in Achtel und Wolkenuntergrenze
Di, 05.07. 14:30 3(2100m)
Di, 05.07. 14:20 3(2100m)
Di, 05.07. 14:10 2
Di, 05.07. 14:00 keine Wolken
Di, 05.07. 13:50 keine Wolken
Di, 05.07. 13:40 1
Di, 05.07. 13:30 4(2100m)
Di, 05.07. 13:00 1(2100m)
Di, 05.07. 12:30 4(2100m)
Di, 05.07. 12:00 2(1800m)
Di, 05.07. 11:30 1(1800m)
Ortszeit Luftdruck NN (hPa) Tendenz (hPa in 3 Std.)
Di, 05.07. 14:00 1019 - 0,2
Di, 05.07. 8:00 1021 + 1,1
Di, 05.07. 2:00 1020 + 0,9
Mo, 04.07. 20:00 1016 - 0,3
Mo, 04.07. 14:00 1018 - 0,5
Mo, 04.07. 8:00 1019 + 1,3
Mo, 04.07. 2:00 1017 + 0,4
So, 03.07. 20:00 1015 - 0,7
Ortszeit Luftdruck NN (hPa) Tendenz (hPa in 3 Std.)
Di, 05.07. 14:30 1019 - 0,5
Di, 05.07. 14:20 1019 keine Meldung
Di, 05.07. 14:10 1019 keine Meldung
Di, 05.07. 14:00 1019 - 0,2
Di, 05.07. 13:50 1019 keine Meldung
Di, 05.07. 13:40 1019 keine Meldung
Di, 05.07. 13:30 1019 - 0,2
Di, 05.07. 13:00 1020 - 0,2
Di, 05.07. 12:30 1020 0,0
Di, 05.07. 12:00 1020 + 0,1
Di, 05.07. 11:30 1020 - 0,1
Ortszeit Schneehöhe (cm)
Di, 05.07. 14:00 0
Di, 05.07. 8:00 0
Di, 05.07. 2:00 0
Mo, 04.07. 20:00 0
Mo, 04.07. 14:00 0
Mo, 04.07. 8:00 0
Mo, 04.07. 2:00 0
So, 03.07. 20:00 0
Ortszeit Schneehöhe (cm)
Di, 05.07. 14:30 0
Di, 05.07. 14:20 0
Di, 05.07. 14:10 0
Di, 05.07. 14:00 0
Di, 05.07. 13:50 0
Di, 05.07. 13:40 0
Di, 05.07. 13:30 0
Di, 05.07. 13:00 0
Di, 05.07. 12:30 0
Di, 05.07. 12:00 0
Di, 05.07. 11:30 0
Link zu dieser Seite / Seite empfehlen

Das Wetter in ...